Time;durP1;ratioP1;P1;durP2;ratioP2;P2;SDS_P1;SDS_P2;PMS_P1;PMS_P2;Temp;Humidity;BMP_temperature;BMP_pressure;BME280_temperature;BME280_humidity;BME280_pressure;Samples;Min_cycle;Max_cycle;Signal;HPM_P1;HPM_P2
2021/08/23 00:02:14;;;;;;;1.10;0.85;;;25.50;55.40;;;;;;5043156;28;20033;-64
2021/08/23 00:04:39;;;;;;;1.65;1.00;;;25.50;55.40;;;;;;5043255;28;20033;-64
2021/08/23 00:07:06;;;;;;;1.45;1.00;;;25.50;55.40;;;;;;5035520;28;20053;-63
2021/08/23 00:09:32;;;;;;;1.83;0.80;;;25.50;55.40;;;;;;5041735;28;20442;-63
2021/08/23 00:11:59;;;;;;;2.10;1.00;;;25.50;55.40;;;;;;5045394;28;20057;-63
2021/08/23 00:14:25;;;;;;;1.20;0.85;;;25.50;55.40;;;;;;5049033;28;20017;-63
2021/08/23 00:16:51;;;;;;;1.25;0.80;;;25.50;55.40;;;;;;5046728;28;20120;-64
2021/08/23 00:19:16;;;;;;;1.33;0.90;;;25.50;55.40;;;;;;5043295;28;20457;-64
2021/08/23 00:21:43;;;;;;;1.45;0.93;;;25.50;55.40;;;;;;5045800;28;20657;-63
2021/08/23 00:24:21;;;;;;;1.90;1.08;;;25.50;55.40;;;;;;5033124;28;20112;-63
2021/08/23 00:26:48;;;;;;;1.50;0.98;;;25.50;55.40;;;;;;5031988;28;20025;-63
2021/08/23 00:29:14;;;;;;;1.42;0.88;;;25.40;55.30;;;;;;5040217;28;20139;-64
2021/08/23 00:31:39;;;;;;;1.98;1.08;;;25.40;55.40;;;;;;5041999;28;20477;-62
2021/08/23 00:34:05;;;;;;;1.42;0.90;;;25.50;55.40;;;;;;5046977;28;20047;-63
2021/08/23 00:36:30;;;;;;;1.10;0.88;;;25.40;55.30;;;;;;5047804;28;20029;-63
2021/08/23 00:38:56;;;;;;;1.05;0.70;;;25.40;55.30;;;;;;5040208;28;20057;-63
2021/08/23 00:41:22;;;;;;;1.08;0.88;;;25.40;55.30;;;;;;5051338;28;20070;-63
2021/08/23 00:43:48;;;;;;;1.35;0.90;;;25.40;55.30;;;;;;5044586;28;20037;-63
2021/08/23 00:46:14;;;;;;;1.17;0.80;;;25.40;55.30;;;;;;5044430;28;20044;-60
2021/08/23 00:48:39;;;;;;;1.70;0.90;;;25.40;55.30;;;;;;5036143;28;20471;-63
2021/08/23 00:51:06;;;;;;;1.40;0.80;;;25.40;55.80;;;;;;5035238;28;20030;-63
2021/08/23 00:53:31;;;;;;;1.73;0.93;;;25.40;55.30;;;;;;5036673;28;20389;-63
2021/08/23 00:55:57;;;;;;;1.23;0.90;;;25.40;55.30;;;;;;5044615;28;20025;-63
2021/08/23 00:58:23;;;;;;;1.45;0.90;;;25.40;55.30;;;;;;5037583;28;20129;-62
2021/08/23 01:01:06;;;;;;;1.50;0.88;;;25.40;55.40;;;;;;5035895;28;20116;-62
2021/08/23 01:03:48;;;;;;;1.55;0.80;;;25.40;55.30;;;;;;5045112;28;20104;-63
2021/08/23 01:06:14;;;;;;;1.30;0.82;;;25.40;55.30;;;;;;5035759;28;20041;-64
2021/08/23 01:08:41;;;;;;;1.42;0.88;;;25.30;55.30;;;;;;5045037;28;20414;-63
2021/08/23 01:11:12;;;;;;;1.58;0.80;;;25.30;55.30;;;;;;5043635;28;20044;-61
2021/08/23 01:13:46;;;;;;;1.20;0.85;;;25.30;55.30;;;;;;5039391;28;20096;-63
2021/08/23 01:16:13;;;;;;;1.45;0.80;;;25.30;55.30;;;;;;5027835;28;20041;-60
2021/08/23 01:18:39;;;;;;;1.17;0.80;;;25.30;55.30;;;;;;5026714;28;20124;-63
2021/08/23 01:21:08;;;;;;;1.50;1.02;;;25.30;55.30;;;;;;5032705;28;20060;-64
2021/08/23 01:23:35;;;;;;;1.02;0.75;;;25.30;55.30;;;;;;5039328;28;20527;-63
2021/08/23 01:26:02;;;;;;;1.42;0.95;;;25.30;55.30;;;;;;5063083;28;20437;-62
2021/08/23 01:29:01;;;;;;;1.42;0.80;;;25.30;55.30;;;;;;5037855;28;20034;-63
2021/08/23 01:31:34;;;;;;;1.40;0.80;;;25.30;55.30;;;;;;5044913;28;20099;-64
2021/08/23 01:34:01;;;;;;;1.38;0.85;;;25.30;55.30;;;;;;5043779;28;20058;-62
2021/08/23 01:36:27;;;;;;;1.17;0.88;;;25.30;55.30;;;;;;5039845;28;20539;-62
2021/08/23 01:38:53;;;;;;;1.45;0.80;;;25.20;55.30;;;;;;5044443;28;20029;-64
2021/08/23 01:41:18;;;;;;;1.10;0.80;;;25.20;55.20;;;;;;5032884;28;20048;-64
2021/08/23 01:43:44;;;;;;;1.10;0.80;;;25.20;55.30;;;;;;5047859;28;20059;-64
2021/08/23 01:46:10;;;;;;;1.27;0.82;;;25.20;55.30;;;;;;5039865;28;20040;-63
2021/08/23 01:48:35;;;;;;;1.45;0.90;;;25.20;55.30;;;;;;5038240;28;20079;-64
2021/08/23 01:51:01;;;;;;;0.80;0.70;;;25.20;55.30;;;;;;5045422;28;20132;-64
2021/08/23 01:53:27;;;;;;;0.80;0.70;;;25.20;55.30;;;;;;5042020;28;20033;-64
2021/08/23 01:55:53;;;;;;;0.93;0.77;;;25.20;55.30;;;;;;5043793;28;20071;-64
2021/08/23 01:58:19;;;;;;;1.15;0.80;;;25.20;55.30;;;;;;5042535;28;20809;-61
2021/08/23 02:00:45;;;;;;;1.25;0.90;;;25.20;55.30;;;;;;5038354;28;20029;-63
2021/08/23 02:03:10;;;;;;;1.23;0.90;;;25.20;55.30;;;;;;5048467;28;20037;-64
2021/08/23 02:05:36;;;;;;;1.08;0.80;;;25.20;55.30;;;;;;5041112;28;20177;-64
2021/08/23 02:08:02;;;;;;;0.88;0.75;;;25.10;55.20;;;;;;5039124;28;20342;-64
2021/08/23 02:10:28;;;;;;;1.23;0.80;;;25.10;55.20;;;;;;5031474;28;20021;-61
2021/08/23 02:12:53;;;;;;;1.00;0.80;;;25.10;55.30;;;;;;5049128;28;20100;-63
2021/08/23 02:15:19;;;;;;;1.38;0.95;;;25.10;55.30;;;;;;5050302;28;20114;-63
2021/08/23 02:17:45;;;;;;;1.33;0.82;;;25.10;55.30;;;;;;5044489;28;20491;-63
2021/08/23 02:20:12;;;;;;;1.02;0.80;;;25.10;55.30;;;;;;5030887;28;20029;-64
2021/08/23 02:22:38;;;;;;;1.52;0.90;;;25.10;55.20;;;;;;5045581;28;20377;-64
2021/08/23 02:25:08;;;;;;;1.08;0.70;;;25.10;55.30;;;;;;5034803;28;20140;-63
2021/08/23 02:27:34;;;;;;;1.10;0.80;;;25.10;55.20;;;;;;5033272;28;20091;-63
2021/08/23 02:29:59;;;;;;;1.20;0.80;;;25.10;55.30;;;;;;5046068;28;20377;-62
2021/08/23 02:32:25;;;;;;;1.63;0.90;;;25.10;55.20;;;;;;5030498;28;20030;-63
2021/08/23 02:34:51;;;;;;;1.27;0.80;;;25.10;55.30;;;;;;5041757;28;20029;-63
2021/08/23 02:37:17;;;;;;;1.15;0.80;;;25.10;55.30;;;;;;5044470;28;20033;-62
2021/08/23 02:39:42;;;;;;;1.48;0.90;;;25.10;55.30;;;;;;5039082;28;20087;-61
2021/08/23 02:42:08;;;;;;;1.25;0.80;;;25.10;55.30;;;;;;5042831;28;20043;-64
2021/08/23 02:44:34;;;;;;;1.40;0.90;;;25.10;55.30;;;;;;5052573;28;20029;-63
2021/08/23 02:46:59;;;;;;;2.05;0.77;;;25.10;55.30;;;;;;5043727;28;20088;-61
2021/08/23 02:49:26;;;;;;;0.82;0.70;;;25.10;55.30;;;;;;5037554;28;20090;-63
2021/08/23 02:51:53;;;;;;;1.02;0.77;;;25.10;55.30;;;;;;5041990;28;20052;-63
2021/08/23 02:54:19;;;;;;;1.25;0.80;;;25.10;55.30;;;;;;5066691;28;20028;-63
2021/08/23 02:56:45;;;;;;;1.63;0.85;;;25.10;55.30;;;;;;5046225;28;20550;-64
2021/08/23 02:59:10;;;;;;;1.30;0.82;;;25.10;55.30;;;;;;5048284;28;20120;-61
2021/08/23 03:01:36;;;;;;;1.10;0.77;;;25.00;55.30;;;;;;5047956;28;20060;-63
2021/08/23 03:04:02;;;;;;;1.55;0.82;;;25.00;55.30;;;;;;5049110;28;20037;-65
2021/08/23 03:06:27;;;;;;;1.10;0.70;;;25.00;55.30;;;;;;5049193;28;20039;-61
2021/08/23 03:08:53;;;;;;;1.33;0.85;;;25.00;55.30;;;;;;5036505;28;20028;-62
2021/08/23 03:11:18;;;;;;;1.20;0.70;;;25.00;55.30;;;;;;5042515;28;20036;-62
2021/08/23 03:13:44;;;;;;;1.17;0.75;;;25.00;55.30;;;;;;5049323;28;20040;-62
2021/08/23 03:16:11;;;;;;;1.50;0.80;;;25.00;55.30;;;;;;5049111;28;20025;-62
2021/08/23 03:18:37;;;;;;;1.00;0.77;;;25.00;55.30;;;;;;5033790;28;20080;-63
2021/08/23 03:21:03;;;;;;;1.67;0.90;;;25.00;55.30;;;;;;5044071;28;20025;-63
2021/08/23 03:23:29;;;;;;;1.00;0.82;;;25.00;55.30;;;;;;5044419;28;20376;-63
2021/08/23 03:25:55;;;;;;;1.48;0.80;;;25.00;55.30;;;;;;5040156;28;20033;-63
2021/08/23 03:28:21;;;;;;;0.93;0.70;;;25.00;55.30;;;;;;5028747;28;20199;-63
2021/08/23 03:30:47;;;;;;;1.08;0.70;;;25.00;55.30;;;;;;5047697;28;20040;-63
2021/08/23 03:33:13;;;;;;;1.35;0.80;;;25.00;55.30;;;;;;5048106;28;20091;-64
2021/08/23 03:35:39;;;;;;;1.35;0.80;;;25.00;55.30;;;;;;5039988;28;20112;-64
2021/08/23 03:38:05;;;;;;;1.65;0.70;;;24.90;55.30;;;;;;5038409;28;20113;-61
2021/08/23 03:40:31;;;;;;;1.00;0.80;;;24.90;55.20;;;;;;5031613;28;20063;-63
2021/08/23 03:42:57;;;;;;;1.30;0.88;;;24.90;55.30;;;;;;5047787;28;20423;-63
2021/08/23 03:45:22;;;;;;;1.17;0.82;;;24.90;55.30;;;;;;5048669;28;20035;-64
2021/08/23 03:47:48;;;;;;;0.70;0.70;;;24.90;55.30;;;;;;5042543;28;20029;-63
2021/08/23 03:50:14;;;;;;;1.02;0.80;;;24.90;55.30;;;;;;5041674;28;20048;-64
2021/08/23 03:52:39;;;;;;;1.15;0.80;;;24.90;55.30;;;;;;5034737;28;20103;-64
2021/08/23 03:55:09;;;;;;;1.20;0.80;;;24.90;55.30;;;;;;5046289;28;20386;-63
2021/08/23 03:57:35;;;;;;;1.10;0.80;;;24.90;55.30;;;;;;5045291;28;20111;-64
2021/08/23 04:00:06;;;;;;;0.98;0.80;;;24.90;55.30;;;;;;5029061;28;20037;-63
2021/08/23 04:02:32;;;;;;;0.77;0.70;;;24.90;55.30;;;;;;5042958;28;20045;-64
2021/08/23 04:04:58;;;;;;;1.88;0.75;;;24.90;55.30;;;;;;5047014;28;20025;-63
2021/08/23 04:07:24;;;;;;;1.08;0.80;;;24.90;55.30;;;;;;5040048;28;20159;-64
2021/08/23 04:09:49;;;;;;;1.30;0.85;;;24.90;55.30;;;;;;5034639;28;20032;-64
2021/08/23 04:12:15;;;;;;;0.93;0.70;;;24.80;55.30;;;;;;5039198;28;20048;-62
2021/08/23 04:14:41;;;;;;;0.90;0.70;;;24.80;55.30;;;;;;5042614;28;20017;-64
2021/08/23 04:17:06;;;;;;;1.25;0.80;;;24.80;55.30;;;;;;5031024;28;20057;-63
2021/08/23 04:19:32;;;;;;;1.20;0.80;;;24.80;55.30;;;;;;5027944;28;20462;-63
2021/08/23 04:21:58;;;;;;;1.55;0.90;;;24.80;55.30;;;;;;5035464;28;20835;-63
2021/08/23 04:24:24;;;;;;;1.00;0.88;;;24.80;55.30;;;;;;5044953;28;20138;-64
2021/08/23 04:26:50;;;;;;;0.90;0.70;;;24.80;55.30;;;;;;5044509;28;20417;-64
2021/08/23 04:29:16;;;;;;;1.02;0.70;;;24.80;55.30;;;;;;5039542;28;20025;-65
2021/08/23 04:31:42;;;;;;;1.02;0.80;;;24.80;55.30;;;;;;5030271;28;20532;-65
2021/08/23 04:34:08;;;;;;;1.10;0.73;;;24.80;55.30;;;;;;5044889;28;20020;-60
2021/08/23 04:36:35;;;;;;;1.10;0.80;;;24.80;55.30;;;;;;5047535;28;20043;-62
2021/08/23 04:39:01;;;;;;;1.50;0.80;;;24.80;55.30;;;;;;5042215;28;20041;-62
2021/08/23 04:41:27;;;;;;;0.88;0.80;;;24.80;55.30;;;;;;5042305;28;20048;-62
2021/08/23 04:43:52;;;;;;;1.40;0.80;;;24.80;55.30;;;;;;5038334;28;20115;-64
2021/08/23 04:46:18;;;;;;;0.95;0.82;;;24.80;55.30;;;;;;5046925;28;20064;-61
2021/08/23 04:48:44;;;;;;;0.77;0.70;;;24.80;55.40;;;;;;5034948;28;20033;-64
2021/08/23 04:51:10;;;;;;;1.15;0.75;;;24.80;55.30;;;;;;5028167;28;20079;-62
2021/08/23 04:53:36;;;;;;;1.00;0.80;;;24.80;55.30;;;;;;5039784;28;20497;-62
2021/08/23 04:56:02;;;;;;;1.15;0.80;;;24.80;55.40;;;;;;5041906;28;20025;-62
2021/08/23 04:58:28;;;;;;;1.40;0.80;;;24.80;55.40;;;;;;5043412;28;20029;-62
2021/08/23 05:00:53;;;;;;;0.93;0.70;;;24.80;55.40;;;;;;5033247;28;20464;-63
2021/08/23 05:03:19;;;;;;;0.82;0.70;;;24.70;55.30;;;;;;5044624;28;20021;-62
2021/08/23 05:05:48;;;;;;;0.98;0.80;;;24.80;55.40;;;;;;5039771;28;20411;-63
2021/08/23 05:08:17;;;;;;;1.25;0.80;;;24.70;55.30;;;;;;5041671;28;20029;-62
2021/08/23 05:10:43;;;;;;;0.95;0.77;;;24.70;55.30;;;;;;5035555;28;20119;-64
2021/08/23 05:13:09;;;;;;;1.35;0.77;;;24.70;55.40;;;;;;5036953;28;20166;-63
2021/08/23 05:15:35;;;;;;;1.30;0.77;;;24.70;55.40;;;;;;5033821;28;20109;-62
2021/08/23 05:18:00;;;;;;;0.90;0.80;;;24.70;55.40;;;;;;5042948;28;20029;-61
2021/08/23 05:20:26;;;;;;;1.17;0.73;;;24.70;55.40;;;;;;5043711;28;20101;-64
2021/08/23 05:22:53;;;;;;;0.95;0.70;;;24.70;55.40;;;;;;5046769;28;20055;-61
2021/08/23 05:25:18;;;;;;;1.25;0.82;;;24.70;55.40;;;;;;5043973;28;20104;-63
2021/08/23 05:27:44;;;;;;;1.05;0.70;;;24.70;55.40;;;;;;5043374;28;20124;-63
2021/08/23 05:30:10;;;;;;;0.90;0.80;;;24.70;55.40;;;;;;5038583;28;20058;-64
2021/08/23 05:32:36;;;;;;;1.45;0.82;;;24.70;55.40;;;;;;5032856;28;20056;-62
2021/08/23 05:35:02;;;;;;;1.40;0.90;;;24.70;55.40;;;;;;5036439;28;20462;-61
2021/08/23 05:37:28;;;;;;;1.00;0.80;;;24.70;55.40;;;;;;5042948;28;20037;-62
2021/08/23 05:39:53;;;;;;;1.63;1.05;;;24.70;55.40;;;;;;5025806;28;20030;-64
2021/08/23 05:42:19;;;;;;;1.40;0.80;;;24.70;55.40;;;;;;5037018;28;20038;-62
2021/08/23 05:44:45;;;;;;;0.90;0.80;;;24.70;55.40;;;;;;5039167;28;20360;-63
2021/08/23 05:47:10;;;;;;;1.45;0.90;;;24.70;55.40;;;;;;5040665;28;20505;-63
2021/08/23 05:49:36;;;;;;;1.50;0.88;;;24.70;55.30;;;;;;5031800;28;20060;-63
2021/08/23 05:52:01;;;;;;;1.38;0.80;;;24.60;55.30;;;;;;5042929;28;20033;-64
2021/08/23 05:54:27;;;;;;;1.42;0.82;;;24.70;55.30;;;;;;5034145;28;20037;-63
2021/08/23 05:56:54;;;;;;;0.95;0.80;;;24.60;55.30;;;;;;5034923;28;20383;-63
2021/08/23 05:59:20;;;;;;;1.20;0.80;;;24.70;55.30;;;;;;5033010;28;20443;-65
2021/08/23 06:01:45;;;;;;;0.98;0.80;;;24.60;55.20;;;;;;5045227;28;20525;-62
2021/08/23 06:04:11;;;;;;;1.17;0.90;;;24.70;55.30;;;;;;5040385;28;20057;-62
2021/08/23 06:06:40;;;;;;;1.15;0.90;;;24.60;55.20;;;;;;5042406;28;20035;-61
2021/08/23 06:09:05;;;;;;;0.98;0.77;;;24.60;55.20;;;;;;5035321;28;20481;-65
2021/08/23 06:11:31;;;;;;;1.52;0.88;;;24.60;55.20;;;;;;5040688;28;20083;-63
2021/08/23 06:13:58;;;;;;;1.33;0.98;;;24.70;55.20;;;;;;5035448;28;20045;-65
2021/08/23 06:16:23;;;;;;;1.42;0.90;;;24.60;55.20;;;;;;5038708;28;20108;-63
2021/08/23 06:18:49;;;;;;;1.50;1.00;;;24.60;55.20;;;;;;5029988;28;20116;-65
2021/08/23 06:21:15;;;;;;;1.00;0.80;;;24.60;55.20;;;;;;5053994;28;20036;-64
2021/08/23 06:23:40;;;;;;;1.13;0.77;;;24.60;55.20;;;;;;5035833;28;20026;-64
2021/08/23 06:26:06;;;;;;;1.35;0.95;;;24.60;55.20;;;;;;5036511;28;20032;-65
2021/08/23 06:28:31;;;;;;;1.67;0.90;;;24.60;55.20;;;;;;5047816;28;20009;-65
2021/08/23 06:30:57;;;;;;;1.85;0.93;;;24.60;55.20;;;;;;5030485;28;20114;-65
2021/08/23 06:33:23;;;;;;;1.35;0.90;;;24.60;55.10;;;;;;5034463;28;20445;-64
2021/08/23 06:35:48;;;;;;;1.58;0.90;;;24.60;55.10;;;;;;5044915;28;20038;-63
2021/08/23 06:38:14;;;;;;;1.30;0.90;;;24.60;55.10;;;;;;5047208;28;20033;-65
2021/08/23 06:40:40;;;;;;;1.27;0.93;;;24.60;55.10;;;;;;5046882;28;20021;-64
2021/08/23 06:43:06;;;;;;;1.17;0.90;;;24.60;55.10;;;;;;5045650;28;20059;-64
2021/08/23 06:45:32;;;;;;;1.20;0.90;;;24.60;55.10;;;;;;5046475;28;20033;-64
2021/08/23 06:47:57;;;;;;;1.00;0.90;;;24.60;55.10;;;;;;5043913;28;20509;-65
2021/08/23 06:50:23;;;;;;;1.63;0.90;;;24.60;55.10;;;;;;5057601;28;20051;-66
2021/08/23 06:52:48;;;;;;;0.95;0.80;;;24.60;55.10;;;;;;5040873;28;20024;-63
2021/08/23 06:55:14;;;;;;;1.58;1.00;;;24.60;55.10;;;;;;5048012;28;20120;-65
2021/08/23 06:57:39;;;;;;;1.27;0.90;;;24.60;55.10;;;;;;5040358;28;20056;-63
2021/08/23 07:00:06;;;;;;;1.60;0.90;;;24.60;55.10;;;;;;5043501;28;20116;-65
2021/08/23 07:02:31;;;;;;;1.02;0.88;;;24.60;55.10;;;;;;5043154;28;20122;-66
2021/08/23 07:04:57;;;;;;;1.52;0.90;;;24.60;55.10;;;;;;5042185;28;20959;-66
2021/08/23 07:07:23;;;;;;;1.52;1.02;;;24.60;55.10;;;;;;5049917;28;20072;-66
2021/08/23 07:09:48;;;;;;;1.50;1.00;;;24.60;55.10;;;;;;5039034;28;20078;-64
2021/08/23 07:12:14;;;;;;;1.25;0.80;;;24.60;55.10;;;;;;5037579;28;20041;-63
2021/08/23 07:14:39;;;;;;;1.35;0.90;;;24.60;55.10;;;;;;5033395;28;20037;-65
2021/08/23 07:17:06;;;;;;;1.48;0.90;;;24.50;55.00;;;;;;5047010;28;20056;-64
2021/08/23 07:19:32;;;;;;;1.15;0.90;;;24.60;55.10;;;;;;5048866;28;20426;-65
2021/08/23 07:21:57;;;;;;;1.10;0.80;;;24.50;55.00;;;;;;5047903;28;20025;-65
2021/08/23 07:24:23;;;;;;;1.15;0.80;;;24.50;55.00;;;;;;5045322;28;20056;-65
2021/08/23 07:26:49;;;;;;;2.08;1.00;;;24.50;55.00;;;;;;5047544;28;20025;-65
2021/08/23 07:29:17;;;;;;;1.85;1.20;;;24.50;54.70;;;;;;5044404;28;20036;-65
2021/08/23 07:31:42;;;;;;;2.95;1.67;;;24.30;53.70;;;;;;5032853;28;20515;-63
2021/08/23 07:34:08;;;;;;;2.80;1.67;;;24.00;53.60;;;;;;5045643;28;20025;-64
2021/08/23 07:36:34;;;;;;;2.50;1.30;;;23.80;54.30;;;;;;5043181;28;20029;-65
2021/08/23 07:39:00;;;;;;;2.88;1.65;;;23.70;54.60;;;;;;5041589;28;20449;-64
2021/08/23 07:41:26;;;;;;;2.78;1.58;;;23.60;54.60;;;;;;5043044;28;20555;-64
2021/08/23 07:43:51;;;;;;;2.72;1.70;;;23.40;54.60;;;;;;5037355;28;20044;-65
2021/08/23 07:46:17;;;;;;;3.05;1.60;;;23.30;55.30;;;;;;5044500;28;20446;-64
2021/08/23 07:48:44;;;;;;;2.90;1.30;;;23.30;55.60;;;;;;5036053;28;20393;-64
2021/08/23 07:51:10;;;;;;;3.28;1.50;;;23.30;55.70;;;;;;5049399;28;20017;-64
2021/08/23 07:53:36;;;;;;;2.85;1.45;;;23.40;55.80;;;;;;5038750;28;20026;-65
2021/08/23 07:56:03;;;;;;;2.78;1.50;;;23.40;55.70;;;;;;5043677;28;20025;-65
2021/08/23 07:58:29;;;;;;;2.75;1.23;;;23.40;55.70;;;;;;5042569;28;20473;-65
2021/08/23 08:00:54;;;;;;;2.45;1.15;;;23.40;55.50;;;;;;5041310;28;20036;-65
2021/08/23 08:03:20;;;;;;;1.95;1.20;;;23.50;55.40;;;;;;5044404;28;20032;-66
2021/08/23 08:05:46;;;;;;;2.00;1.20;;;23.60;55.50;;;;;;5042021;28;20515;-64
2021/08/23 08:08:17;;;;;;;1.85;0.95;;;23.60;55.40;;;;;;5038447;28;20043;-64
2021/08/23 08:10:42;;;;;;;1.27;0.90;;;23.60;55.30;;;;;;5046920;28;20036;-64
2021/08/23 08:13:08;;;;;;;1.42;0.95;;;23.60;55.30;;;;;;5033386;28;20080;-65
2021/08/23 08:15:34;;;;;;;2.60;1.25;;;23.70;55.30;;;;;;5044344;28;20032;-64
2021/08/23 08:18:00;;;;;;;1.60;0.93;;;23.70;55.30;;;;;;5043109;28;20441;-64
2021/08/23 08:20:26;;;;;;;2.17;1.20;;;23.70;55.30;;;;;;5038422;28;20060;-63
2021/08/23 08:22:52;;;;;;;1.45;1.02;;;23.70;55.30;;;;;;5045527;28;20031;-64
2021/08/23 08:25:18;;;;;;;2.15;1.08;;;23.70;55.30;;;;;;5043038;28;20075;-65
2021/08/23 08:27:44;;;;;;;1.95;1.00;;;23.80;55.30;;;;;;5037645;28;20108;-65
2021/08/23 08:30:14;;;;;;;1.45;1.00;;;23.80;55.30;;;;;;5051480;28;20452;-65
2021/08/23 08:32:39;;;;;;;;;;;23.80;55.20;;;;;;5042677;28;20034;-65
2021/08/23 08:35:05;;;;;;;1.70;1.00;;;23.80;55.30;;;;;;5048369;28;19918;-65
2021/08/23 08:37:31;;;;;;;2.97;1.23;;;23.80;55.20;;;;;;5049909;28;20110;-64
2021/08/23 08:39:57;;;;;;;1.60;1.05;;;23.80;55.20;;;;;;5053940;28;20116;-64
2021/08/23 08:42:22;;;;;;;1.77;1.00;;;23.80;55.20;;;;;;5038238;28;20119;-65
2021/08/23 08:44:48;;;;;;;1.98;1.00;;;23.80;55.20;;;;;;5042848;28;20072;-64
2021/08/23 08:47:18;;;;;;;1.58;0.90;;;23.80;55.20;;;;;;5045421;28;20048;-62
2021/08/23 08:49:45;;;;;;;1.25;0.90;;;23.80;55.20;;;;;;5048610;28;20199;-62
2021/08/23 08:52:12;;;;;;;1.67;1.10;;;23.80;55.20;;;;;;5044489;28;20089;-61
2021/08/23 08:54:39;;;;;;;1.55;0.90;;;23.80;55.20;;;;;;5047258;28;20651;-60
2021/08/23 08:57:05;;;;;;;1.63;1.08;;;23.80;55.20;;;;;;5043193;28;20037;-61
2021/08/23 08:59:31;;;;;;;1.85;1.02;;;23.80;55.20;;;;;;5030152;28;20339;-61
2021/08/23 09:01:57;;;;;;;2.28;1.00;;;23.90;55.30;;;;;;5052960;28;20035;-61
2021/08/23 09:04:28;;;;;;;1.80;1.00;;;23.90;55.30;;;;;;5041365;28;20032;-62
2021/08/23 09:06:57;;;;;;;1.80;1.10;;;23.90;55.30;;;;;;5040844;28;20404;-62
2021/08/23 09:09:23;;;;;;;1.80;0.97;;;23.90;55.30;;;;;;5032739;28;20033;-61
2021/08/23 09:12:07;;;;;;;1.13;0.80;;;23.90;55.30;;;;;;5032235;28;20033;-61
2021/08/23 09:14:36;;;;;;;1.63;0.95;;;23.90;55.30;;;;;;5035061;28;20095;-60
2021/08/23 09:17:02;;;;;;;;;;;23.90;55.20;;;;;;5042759;28;20168;-62
2021/08/23 09:19:29;;;;;;;1.42;0.93;;;23.90;55.20;;;;;;5040995;28;20365;-62
2021/08/23 09:22:03;;;;;;;1.98;1.00;;;23.90;55.20;;;;;;5043424;28;20100;-62
2021/08/23 09:24:35;;;;;;;1.52;0.90;;;23.90;55.20;;;;;;5044214;28;20094;-62
2021/08/23 09:27:14;;;;;;;1.35;1.00;;;23.90;55.20;;;;;;5040478;28;20047;-61
2021/08/23 09:29:56;;;;;;;;;;;23.90;55.30;;;;;;5040081;28;20044;-61
2021/08/23 09:32:23;;;;;;;1.52;0.93;;;23.90;55.20;;;;;;5047826;28;19916;-61
2021/08/23 09:34:49;;;;;;;1.42;0.98;;;23.90;55.30;;;;;;5037808;28;20167;-62
2021/08/23 09:37:17;;;;;;;1.40;0.93;;;23.90;55.20;;;;;;5037822;28;20116;-61
2021/08/23 09:39:43;;;;;;;1.80;0.90;;;23.90;55.30;;;;;;5038874;28;20025;-62
2021/08/23 09:42:09;;;;;;;1.50;1.00;;;23.90;55.30;;;;;;5042535;28;20037;-59
2021/08/23 09:44:38;;;;;;;1.50;0.90;;;24.00;55.40;;;;;;5061433;28;20033;-61
2021/08/23 09:47:05;;;;;;;1.45;1.00;;;24.00;55.40;;;;;;5040780;28;20035;-62
2021/08/23 09:49:49;;;;;;;1.27;0.82;;;23.90;55.30;;;;;;5042675;28;20037;-62
2021/08/23 09:52:27;;;;;;;1.48;0.98;;;24.00;55.40;;;;;;5040241;28;20025;-62
2021/08/23 09:55:05;;;;;;;1.65;1.00;;;24.00;55.40;;;;;;5038913;28;20024;-61
2021/08/23 09:57:36;;;;;;;1.80;1.00;;;24.00;55.50;;;;;;5043472;28;20041;-61
2021/08/23 10:00:04;;;;;;;1.70;0.90;;;24.00;55.40;;;;;;5036155;28;20067;-60
2021/08/23 10:02:29;;;;;;;1.35;0.90;;;24.00;55.40;;;;;;5045889;28;20032;-61
2021/08/23 10:04:58;;;;;;;1.58;1.00;;;24.00;55.40;;;;;;5037091;28;20038;-62
2021/08/23 10:07:27;;;;;;;2.10;1.05;;;24.10;55.50;;;;;;5045662;28;20033;-61
2021/08/23 10:09:54;;;;;;;1.25;0.93;;;24.10;55.50;;;;;;5048226;28;20104;-60
2021/08/23 10:12:21;;;;;;;1.42;1.00;;;24.10;55.50;;;;;;5044878;28;20033;-61
2021/08/23 10:14:47;;;;;;;1.65;1.17;;;24.10;55.50;;;;;;5043159;28;20394;-62
2021/08/23 10:17:13;;;;;;;1.45;0.93;;;24.10;55.50;;;;;;5037075;28;20170;-61
2021/08/23 10:19:41;;;;;;;1.42;0.90;;;24.10;55.50;;;;;;5043236;28;20059;-62
2021/08/23 10:22:08;;;;;;;1.63;1.10;;;24.10;55.50;;;;;;5043634;28;20017;-61
2021/08/23 10:24:34;;;;;;;1.52;1.10;;;24.10;55.50;;;;;;5045231;28;20036;-61
2021/08/23 10:26:59;;;;;;;0.85;0.80;;;24.10;55.50;;;;;;5037848;28;20029;-61
2021/08/23 10:29:38;;;;;;;1.42;1.00;;;24.00;55.40;;;;;;5048760;28;20064;-61
2021/08/23 10:32:10;;;;;;;1.55;1.05;;;24.10;55.40;;;;;;5025578;28;20021;-62
2021/08/23 10:34:38;;;;;;;1.55;0.90;;;24.10;55.40;;;;;;5053910;28;20063;-60
2021/08/23 10:37:23;;;;;;;1.20;0.90;;;24.10;55.40;;;;;;5043928;28;20037;-61
2021/08/23 10:40:03;;;;;;;1.55;0.90;;;24.10;55.60;;;;;;5036827;28;20053;-61
2021/08/23 10:42:40;;;;;;;0.98;0.75;;;24.10;55.30;;;;;;5040988;28;20060;-61
2021/08/23 10:45:08;;;;;;;1.23;0.82;;;24.10;55.80;;;;;;5050367;28;20472;-61
2021/08/23 10:47:34;;;;;;;1.83;0.80;;;24.10;55.20;;;;;;5048526;28;20017;-60
2021/08/23 10:49:59;;;;;;;2.17;1.15;;;24.10;55.20;;;;;;5045002;28;20090;-61
2021/08/23 10:52:36;;;;;;;1.55;1.00;;;24.10;55.20;;;;;;5037184;28;20465;-60
2021/08/23 10:55:07;;;;;;;1.70;0.95;;;24.10;55.20;;;;;;5049539;28;20025;-62
2021/08/23 10:57:33;;;;;;;1.10;0.80;;;24.20;55.20;;;;;;5043981;28;20029;-60
2021/08/23 11:00:11;;;;;;;1.20;0.90;;;24.10;55.20;;;;;;5042786;28;20032;-59
2021/08/23 11:02:38;;;;;;;1.23;0.88;;;24.10;55.20;;;;;;5050446;28;20021;-61
2021/08/23 11:05:12;;;;;;;1.85;1.02;;;24.20;55.70;;;;;;5042214;28;20076;-61
2021/08/23 11:07:39;;;;;;;1.02;0.88;;;24.20;55.20;;;;;;5041510;28;20028;-62
2021/08/23 11:10:17;;;;;;;1.45;0.90;;;24.20;55.70;;;;;;5029367;28;20536;-61
2021/08/23 11:12:47;;;;;;;1.65;0.90;;;24.20;55.20;;;;;;5035734;28;20061;-61
2021/08/23 11:15:25;;;;;;;1.73;1.00;;;24.20;55.20;;;;;;5048560;28;20463;-61
2021/08/23 11:17:51;;;;;;;0.98;0.80;;;24.20;55.20;;;;;;5045949;28;20405;-59
2021/08/23 11:20:21;;;;;;;1.38;1.00;;;24.20;55.10;;;;;;5045977;28;20120;-60
2021/08/23 11:22:54;;;;;;;1.13;0.90;;;24.20;55.10;;;;;;5046578;28;20261;-60
2021/08/23 11:25:27;;;;;;;2.10;1.00;;;24.20;55.20;;;;;;5046662;28;20347;-62
2021/08/23 11:27:53;;;;;;;1.45;1.00;;;24.20;55.60;;;;;;5042986;28;20437;-60
2021/08/23 11:30:27;;;;;;;1.67;1.00;;;24.20;55.10;;;;;;5045209;28;20053;-61
2021/08/23 11:32:53;;;;;;;2.28;1.00;;;24.20;55.10;;;;;;5042454;28;20032;-62
2021/08/23 11:35:19;;;;;;;1.65;1.10;;;24.30;55.20;;;;;;5047344;28;20357;-60
2021/08/23 11:37:46;;;;;;;1.70;1.02;;;24.20;55.10;;;;;;5043566;28;20412;-62
2021/08/23 11:40:12;;;;;;;1.58;1.00;;;24.20;55.10;;;;;;5048626;28;20048;-61
2021/08/23 11:42:37;;;;;;;2.58;1.00;;;24.20;55.10;;;;;;5029815;28;20095;-60
2021/08/23 11:45:04;;;;;;;1.55;0.90;;;24.20;55.00;;;;;;5047219;28;20025;-59
2021/08/23 11:47:35;;;;;;;1.67;0.90;;;24.20;55.00;;;;;;5058125;28;20042;-61
2021/08/23 11:50:02;;;;;;;1.20;0.90;;;24.30;55.10;;;;;;5035142;28;20029;-61
2021/08/23 11:52:29;;;;;;;1.55;1.00;;;24.30;55.10;;;;;;5041437;28;20036;-60
2021/08/23 11:54:56;;;;;;;1.98;1.15;;;24.30;55.00;;;;;;5045344;28;20052;-61
2021/08/23 11:57:25;;;;;;;1.05;0.80;;;24.30;55.00;;;;;;5047849;28;20690;-61
2021/08/23 12:00:02;;;;;;;1.63;0.90;;;24.30;55.00;;;;;;5044359;28;20119;-60
2021/08/23 12:02:34;;;;;;;1.83;1.10;;;24.30;55.00;;;;;;5044538;28;20043;-61
2021/08/23 12:05:14;;;;;;;1.30;0.90;;;24.30;55.00;;;;;;5045364;28;20175;-60
2021/08/23 12:07:44;;;;;;;2.83;1.00;;;24.30;55.00;;;;;;5053029;28;20032;-62
2021/08/23 12:10:27;;;;;;;1.75;0.80;;;24.30;54.90;;;;;;5036873;28;20030;-61
2021/08/23 12:13:06;;;;;;;1.63;1.05;;;24.30;54.90;;;;;;5043483;28;20386;-62
2021/08/23 12:15:34;;;;;;;1.83;1.00;;;24.30;54.80;;;;;;5046529;28;20711;-60
2021/08/23 12:18:11;;;;;;;1.75;1.00;;;24.30;54.80;;;;;;5047733;28;20032;-59
2021/08/23 12:20:37;;;;;;;1.65;1.10;;;24.30;54.80;;;;;;5046135;28;20115;-60
2021/08/23 12:23:03;;;;;;;2.83;1.00;;;24.30;54.80;;;;;;5048464;28;20424;-59
2021/08/23 12:25:29;;;;;;;1.75;1.00;;;24.30;54.80;;;;;;5036349;28;20041;-62
2021/08/23 12:27:54;;;;;;;1.40;1.10;;;24.30;54.80;;;;;;5038056;28;20220;-61
2021/08/23 12:30:30;;;;;;;1.33;0.98;;;24.30;54.80;;;;;;5042026;28;20132;-61
2021/08/23 12:32:56;;;;;;;1.48;0.98;;;24.30;54.70;;;;;;5047016;28;20033;-61
2021/08/23 12:35:31;;;;;;;0.98;0.88;;;24.30;55.30;;;;;;5043273;28;20539;-61
2021/08/23 12:37:59;;;;;;;1.73;1.10;;;24.30;54.70;;;;;;5040808;28;20041;-61
2021/08/23 12:40:26;;;;;;;3.15;1.30;;;24.40;54.70;;;;;;5056060;28;20025;-63
2021/08/23 12:42:58;;;;;;;1.17;0.90;;;24.30;54.60;;;;;;5045785;28;20090;-61
2021/08/23 12:45:25;;;;;;;1.27;1.00;;;24.40;54.70;;;;;;5049237;28;20092;-62
2021/08/23 12:47:52;;;;;;;1.27;0.98;;;24.40;54.60;;;;;;5066775;28;20093;-62
2021/08/23 12:50:18;;;;;;;2.00;1.17;;;24.40;54.70;;;;;;5063328;28;20021;-62